Time;durP1;ratioP1;P1;durP2;ratioP2;P2;SDS_P1;SDS_P2;PMS_P1;PMS_P2;Temp;Humidity;BMP_temperature;BMP_pressure;BME280_temperature;BME280_humidity;BME280_pressure;Samples;Min_cycle;Max_cycle;Signal;HPM_P1;HPM_P2
2023/05/28 00:02:08;;;;;;;18.05;10.60;;;;;;;12.82;85.09;101973.84;5035021;28;20056;-69
2023/05/28 00:04:33;;;;;;;15.38;9.38;;;;;;;12.82;85.27;101978.22;5035900;28;20029;-69
2023/05/28 00:06:59;;;;;;;18.55;9.82;;;;;;;12.77;85.16;101980.00;5035633;28;20055;-70
2023/05/28 00:09:24;;;;;;;19.20;10.52;;;;;;;12.63;85.33;101965.38;5035147;28;20108;-69
2023/05/28 00:11:49;;;;;;;21.40;10.52;;;;;;;12.69;85.64;101972.28;5035727;28;20033;-69
2023/05/28 00:14:15;;;;;;;21.15;10.07;;;;;;;12.52;86.21;101958.56;5034764;28;20030;-69
2023/05/28 00:16:43;;;;;;;18.30;10.32;;;;;;;12.58;86.31;101961.09;5035413;28;20032;-70
2023/05/28 00:19:09;;;;;;;16.52;9.88;;;;;;;12.53;87.30;101966.41;5035304;28;20112;-69
2023/05/28 00:21:35;;;;;;;19.73;10.48;;;;;;;12.53;87.09;101952.44;5035142;28;20025;-69
2023/05/28 00:24:00;;;;;;;18.98;10.57;;;;;;;12.50;87.35;101966.44;5035566;28;20457;-69
2023/05/28 00:26:26;;;;;;;20.75;10.77;;;;;;;12.36;88.60;101937.84;5035630;28;20022;-69
2023/05/28 00:28:52;;;;;;;20.27;10.80;;;;;;;12.41;88.46;101962.19;5034690;28;20067;-69
2023/05/28 00:31:17;;;;;;;21.38;10.65;;;;;;;12.39;88.72;101953.50;5035642;28;20472;-69
2023/05/28 00:33:43;;;;;;;20.10;10.38;;;;;;;12.36;88.69;101963.13;5035074;28;20030;-69
2023/05/28 00:36:10;;;;;;;18.73;11.68;;;;;;;12.31;89.44;101964.94;5034482;28;20057;-69
2023/05/28 00:38:35;;;;;;;19.33;11.27;;;;;;;12.28;90.10;101963.22;5035549;28;20017;-69
2023/05/28 00:41:01;;;;;;;22.15;11.23;;;;;;;12.24;90.19;101964.16;5035207;28;20083;-69
2023/05/28 00:43:26;;;;;;;18.05;10.65;;;;;;;12.22;91.49;101967.66;5034511;28;20160;-69
2023/05/28 00:45:51;;;;;;;21.05;10.63;;;;;;;12.21;91.47;101973.78;5034855;28;20488;-69
2023/05/28 00:48:17;;;;;;;18.05;11.38;;;;;;;12.15;91.99;101972.09;5034827;28;20038;-69
2023/05/28 00:50:43;;;;;;;20.85;11.52;;;;;;;12.15;92.78;101966.88;5033864;28;20465;-69
2023/05/28 00:53:10;;;;;;;22.10;10.68;;;;;;;12.06;92.98;101970.44;5035275;28;20029;-69
2023/05/28 00:55:36;;;;;;;21.63;11.15;;;;;;;12.05;93.51;101962.66;5035060;28;20021;-69
2023/05/28 00:58:05;;;;;;;24.67;11.02;;;;;;;11.99;93.31;101963.56;5034027;28;20044;-69
2023/05/28 01:00:30;;;;;;;19.38;10.73;;;;;;;11.92;93.26;101957.56;5034852;28;20385;-69
2023/05/28 01:02:56;;;;;;;18.15;11.20;;;;;;;11.94;93.84;101958.41;5034271;28;20033;-69
2023/05/28 01:05:22;;;;;;;15.00;10.15;;;;;;;11.91;93.76;101955.84;5033450;28;20064;-69
2023/05/28 01:07:47;;;;;;;20.38;10.95;;;;;;;11.85;94.00;101961.13;5034543;28;20548;-69
2023/05/28 01:10:13;;;;;;;19.38;10.75;;;;;;;11.86;94.00;101957.63;5034704;28;20105;-69
2023/05/28 01:12:40;;;;;;;20.40;10.55;;;;;;;11.80;93.62;101949.81;5034006;28;20025;-69
2023/05/28 01:15:07;;;;;;;19.83;10.57;;;;;;;11.83;94.12;101961.97;5034604;28;20059;-69
2023/05/28 01:17:33;;;;;;;19.48;10.93;;;;;;;11.81;94.12;101955.94;5033709;28;20029;-69
2023/05/28 01:20:05;;;;;;;16.80;10.75;;;;;;;11.80;94.45;101957.66;5034558;28;20035;-69
2023/05/28 01:22:37;;;;;;;18.58;11.20;;;;;;;11.82;94.46;101960.25;5034538;28;20041;-69
2023/05/28 01:25:09;;;;;;;17.70;10.40;;;;;;;11.78;94.47;101953.34;5034143;28;20061;-69
2023/05/28 01:27:37;;;;;;;22.75;11.20;;;;;;;11.73;93.98;101945.53;5034247;28;20477;-69
2023/05/28 01:30:05;;;;;;;25.38;11.43;;;;;;;11.77;94.68;101960.31;5029150;28;20484;-69
2023/05/28 01:32:30;;;;;;;21.42;10.95;;;;;;;11.73;95.33;101967.28;5033815;28;20075;-69
2023/05/28 01:34:56;;;;;;;16.85;10.60;;;;;;;11.68;95.01;101955.19;5034155;28;20022;-69
2023/05/28 01:37:24;;;;;;;20.65;11.10;;;;;;;11.72;96.15;101969.94;5034504;28;20083;-69
2023/05/28 01:39:51;;;;;;;20.27;11.35;;;;;;;11.69;96.17;101959.53;5033018;28;20041;-69
2023/05/28 01:42:17;;;;;;;20.08;11.52;;;;;;;11.71;96.12;101968.22;5034135;28;20033;-69
2023/05/28 01:44:43;;;;;;;18.08;10.88;;;;;;;11.65;96.45;101948.25;5033499;28;20043;-69
2023/05/28 01:47:11;;;;;;;19.38;11.30;;;;;;;11.68;95.93;101965.63;5033138;28;20040;-69
2023/05/28 01:49:38;;;;;;;20.08;11.30;;;;;;;11.66;96.35;101967.38;5034301;28;20029;-69
2023/05/28 01:52:04;;;;;;;20.88;11.43;;;;;;;11.64;96.67;101969.13;5034110;28;20075;-69
2023/05/28 01:54:29;;;;;;;20.80;11.65;;;;;;;11.63;96.84;101962.19;5033482;28;20108;-69
2023/05/28 01:56:55;;;;;;;20.20;11.45;;;;;;;11.60;96.81;101968.31;5033659;28;20103;-69
2023/05/28 01:59:20;;;;;;;20.75;10.95;;;;;;;11.58;96.56;101964.84;5034027;28;20371;-69
2023/05/28 02:01:46;;;;;;;19.48;11.38;;;;;;;11.58;96.84;101957.03;5032490;28;20042;-69
2023/05/28 02:04:11;;;;;;;21.95;11.48;;;;;;;11.55;96.71;101961.41;5033995;28;20034;-69
2023/05/28 02:06:40;;;;;;;22.25;11.57;;;;;;;11.56;97.34;101960.53;5033472;28;20033;-69
2023/05/28 02:09:05;;;;;;;19.80;11.55;;;;;;;11.52;96.97;101953.59;5033723;28;20033;-69
2023/05/28 02:11:31;;;;;;;19.58;10.68;;;;;;;11.54;97.57;101959.66;5033604;28;20041;-69
2023/05/28 02:13:56;;;;;;;23.80;11.73;;;;;;;11.53;97.13;101957.94;5032629;28;20049;-69
2023/05/28 02:16:22;;;;;;;19.85;11.07;;;;;;;11.52;97.64;101957.06;5033626;28;20041;-69
2023/05/28 02:18:50;;;;;;;18.25;10.85;;;;;;;11.53;97.85;101955.31;5033046;28;20056;-69
2023/05/28 02:21:17;;;;;;;20.05;11.73;;;;;;;11.51;97.71;101947.53;5032895;28;20111;-69
2023/05/28 02:23:45;;;;;;;20.48;10.68;;;;;;;11.48;97.64;101940.56;5033113;28;20044;-69
2023/05/28 02:26:11;;;;;;;21.38;11.48;;;;;;;11.49;98.61;101942.28;5029733;28;20064;-69
2023/05/28 02:28:36;;;;;;;23.23;11.15;;;;;;;11.48;98.46;101935.34;5032471;28;20116;-69
2023/05/28 02:31:02;;;;;;;18.63;10.90;;;;;;;11.45;97.92;101943.22;5033128;28;20079;-69
2023/05/28 02:33:27;;;;;;;19.38;10.75;;;;;;;11.41;98.10;101941.53;5033433;28;20025;-69
2023/05/28 02:35:53;;;;;;;18.52;11.35;;;;;;;11.34;98.65;101937.22;5032249;28;20496;-69
2023/05/28 02:38:19;;;;;;;18.50;10.63;;;;;;;11.25;99.04;101926.88;5030928;28;20462;-69
2023/05/28 02:40:44;;;;;;;24.15;11.48;;;;;;;11.22;99.63;101939.97;5032534;28;20109;-69
2023/05/28 02:43:10;;;;;;;20.13;10.93;;;;;;;11.15;99.77;101940.84;5031935;28;20100;-69
2023/05/28 02:45:35;;;;;;;22.58;11.10;;;;;;;11.11;100.00;101945.25;5032887;28;20488;-69
2023/05/28 02:48:00;;;;;;;22.42;11.75;;;;;;;11.09;100.00;101941.78;5032529;28;20065;-69
2023/05/28 02:50:26;;;;;;;22.58;11.68;;;;;;;11.06;100.00;101943.56;5032228;28;20030;-69
2023/05/28 02:52:51;;;;;;;22.83;11.88;;;;;;;11.04;100.00;101947.91;5032459;28;20033;-69
2023/05/28 02:55:16;;;;;;;18.38;11.18;;;;;;;11.06;100.00;101944.44;5032595;28;20037;-69
2023/05/28 02:57:41;;;;;;;19.38;11.90;;;;;;;11.02;100.00;101947.94;5031838;28;20045;-69
2023/05/28 03:00:11;;;;;;;19.13;11.65;;;;;;;10.90;100.00;101941.06;5032722;28;20038;-69
2023/05/28 03:02:36;;;;;;;20.15;11.05;;;;;;;10.86;100.00;101939.38;5032700;28;20040;-68
2023/05/28 03:05:02;;;;;;;18.42;11.32;;;;;;;10.82;100.00;101942.84;5031520;28;20029;-69
2023/05/28 03:07:27;;;;;;;19.10;11.30;;;;;;;10.83;100.00;101952.44;5032622;28;20519;-69
2023/05/28 03:09:52;;;;;;;22.10;11.32;;;;;;;10.82;100.00;101955.88;5032377;28;20079;-69
2023/05/28 03:12:17;;;;;;;20.73;11.32;;;;;;;10.81;100.00;101954.16;5031579;28;20440;-69
2023/05/28 03:14:43;;;;;;;22.73;11.20;;;;;;;10.68;100.00;101932.50;5032551;28;20075;-69
2023/05/28 03:17:08;;;;;;;21.45;11.50;;;;;;;10.76;100.00;101948.13;5031803;28;20026;-69
2023/05/28 03:19:33;;;;;;;25.58;11.77;;;;;;;10.73;100.00;101942.94;5032528;28;20499;-69
2023/05/28 03:21:59;;;;;;;18.17;10.60;;;;;;;10.66;100.00;101936.91;5032125;28;20079;-69
2023/05/28 03:24:24;;;;;;;17.92;10.95;;;;;;;10.71;100.00;101949.88;5031386;28;20021;-69
2023/05/28 03:26:49;;;;;;;20.98;10.18;;;;;;;10.69;100.00;101944.69;5031517;28;20029;-69
2023/05/28 03:29:15;;;;;;;20.15;10.55;;;;;;;10.72;100.00;101946.41;5032332;28;20027;-69
2023/05/28 03:31:45;;;;;;;19.30;10.93;;;;;;;10.74;100.00;101947.25;5031189;28;20025;-69
2023/05/28 03:34:10;;;;;;;19.40;9.85;;;;;;;10.62;100.00;101927.34;5032095;28;20469;-69
2023/05/28 03:36:35;;;;;;;17.85;10.68;;;;;;;10.70;100.00;101949.03;5032354;28;20029;-69
2023/05/28 03:39:01;;;;;;;20.73;10.68;;;;;;;10.64;100.00;101943.00;5031201;28;20413;-69
2023/05/28 03:41:26;;;;;;;17.63;10.50;;;;;;;10.62;100.00;101942.97;5031822;28;20436;-69
2023/05/28 03:43:51;;;;;;;17.40;9.45;;;;;;;10.64;100.00;101949.06;5032082;28;20033;-69
2023/05/28 03:46:17;;;;;;;17.52;9.98;;;;;;;10.63;100.00;101951.69;5031089;28;20025;-69
2023/05/28 03:48:42;;;;;;;22.40;11.10;;;;;;;10.59;100.00;101950.81;5031520;28;20184;-69
2023/05/28 03:51:09;;;;;;;19.25;10.95;;;;;;;10.63;100.00;101954.31;5032031;28;20101;-69
2023/05/28 03:53:35;;;;;;;17.35;9.85;;;;;;;10.60;100.00;101964.75;5031348;28;20030;-69
2023/05/28 03:56:01;;;;;;;18.00;10.20;;;;;;;10.59;100.00;101961.25;5031881;28;20022;-69
2023/05/28 03:58:26;;;;;;;18.90;10.35;;;;;;;10.62;100.00;101962.97;5031901;28;20032;-69
2023/05/28 04:00:51;;;;;;;18.17;9.80;;;;;;;10.60;100.00;101963.00;5031078;28;20108;-69
2023/05/28 04:03:16;;;;;;;18.95;10.15;;;;;;;10.61;100.00;101958.66;5032005;28;20040;-69
2023/05/28 04:05:42;;;;;;;20.55;10.45;;;;;;;10.65;100.00;101960.34;5031629;28;20555;-69
2023/05/28 04:08:07;;;;;;;22.40;10.10;;;;;;;10.57;100.00;101947.38;5031173;28;20034;-69
2023/05/28 04:10:32;;;;;;;18.73;9.23;;;;;;;10.72;100.00;101968.13;5031837;28;20026;-69
2023/05/28 04:12:57;;;;;;;17.42;9.75;;;;;;;10.74;100.00;101970.75;5031947;28;20120;-69
2023/05/28 04:15:23;;;;;;;20.17;10.30;;;;;;;10.76;100.00;101966.41;5031046;28;20492;-69
2023/05/28 04:17:48;;;;;;;16.02;9.55;;;;;;;10.76;100.00;101966.41;5031363;28;20469;-69
2023/05/28 04:20:13;;;;;;;17.02;9.93;;;;;;;10.81;100.00;101966.34;5031447;28;20029;-69
2023/05/28 04:22:39;;;;;;;19.27;10.30;;;;;;;10.76;100.00;101963.78;5031169;28;20038;-69
2023/05/28 04:25:04;;;;;;;16.60;8.90;;;;;;;10.80;100.00;101978.53;5032037;28;20033;-69
2023/05/28 04:27:30;;;;;;;20.35;10.02;;;;;;;10.86;100.00;101978.50;5030972;28;20108;-69
2023/05/28 04:29:56;;;;;;;23.38;10.30;;;;;;;10.88;100.00;101976.72;5031769;28;20018;-69
2023/05/28 04:32:22;;;;;;;20.08;9.75;;;;;;;10.96;100.00;101977.56;5031847;28;20101;-69
2023/05/28 04:34:48;;;;;;;24.42;10.68;;;;;;;11.00;100.00;101975.78;5030928;28;20033;-69
2023/05/28 04:37:13;;;;;;;19.15;9.80;;;;;;;11.10;100.00;101969.63;5031859;28;20021;-69
2023/05/28 04:39:38;;;;;;;20.88;9.98;;;;;;;11.08;100.00;101957.44;5033208;28;20477;-69
2023/05/28 04:42:07;;;;;;;20.73;10.00;;;;;;;11.22;100.00;101985.19;5034580;28;20029;-69
2023/05/28 04:44:35;;;;;;;20.83;10.43;;;;;;;11.25;100.00;101985.16;5032327;28;20079;-69
2023/05/28 04:47:00;;;;;;;19.63;10.18;;;;;;;11.33;100.00;101977.25;5034843;28;20045;-69
2023/05/28 04:49:26;;;;;;;24.02;11.07;;;;;;;11.35;100.00;101985.97;5034158;28;20053;-70
2023/05/28 04:51:51;;;;;;;18.85;10.05;;;;;;;11.39;100.00;101987.66;5034840;28;20366;-69
2023/05/28 04:54:17;;;;;;;19.27;10.43;;;;;;;11.43;100.00;101986.75;5035025;28;20030;-69
2023/05/28 04:56:43;;;;;;;21.73;11.23;;;;;;;11.52;100.00;101984.94;5033861;28;20037;-69
2023/05/28 04:59:09;;;;;;;21.40;11.48;;;;;;;11.59;100.00;101991.84;5034832;28;20068;-69
2023/05/28 05:01:35;;;;;;;20.10;11.65;;;;;;;11.61;100.00;101992.69;5034902;28;20033;-69
2023/05/28 05:04:01;;;;;;;20.60;10.75;;;;;;;11.63;100.00;101980.47;5033807;28;20099;-69
2023/05/28 05:06:26;;;;;;;21.33;10.27;;;;;;;11.56;100.00;101953.56;5035008;28;20465;-69
2023/05/28 05:08:53;;;;;;;29.65;10.35;;;;;;;11.78;100.00;101982.09;5034729;28;20064;-69
2023/05/28 05:11:18;;;;;;;17.90;9.85;;;;;;;11.83;100.00;101988.09;5034176;28;20029;-69
2023/05/28 05:13:44;;;;;;;20.52;10.75;;;;;;;11.91;100.00;101987.19;5034685;28;20094;-69
2023/05/28 05:16:10;;;;;;;21.40;10.05;;;;;;;11.99;100.00;101994.94;5034820;28;20393;-69
2023/05/28 05:18:35;;;;;;;22.55;10.20;;;;;;;12.05;100.00;102000.09;5033673;28;20052;-69
2023/05/28 05:21:00;;;;;;;24.38;10.18;;;;;;;12.08;99.50;101992.22;5034272;28;20164;-69
2023/05/28 05:23:26;;;;;;;21.25;10.15;;;;;;;12.09;99.73;101990.47;5034372;28;20033;-69
2023/05/28 05:25:51;;;;;;;18.55;10.23;;;;;;;12.13;99.25;101984.31;5033512;28;20108;-69
2023/05/28 05:28:17;;;;;;;20.90;10.77;;;;;;;12.23;98.46;101999.03;5034501;28;20075;-69
2023/05/28 05:30:42;;;;;;;18.45;10.30;;;;;;;12.27;99.19;101992.03;5033365;28;20037;-69
2023/05/28 05:33:08;;;;;;;24.05;10.38;;;;;;;12.36;98.29;101987.53;5034755;28;20480;-69
2023/05/28 05:35:33;;;;;;;21.67;10.15;;;;;;;12.45;97.01;101999.63;5034094;28;20029;-69
2023/05/28 05:37:58;;;;;;;20.80;10.85;;;;;;;12.51;97.92;101993.44;5033221;28;20116;-69
2023/05/28 05:40:23;;;;;;;22.58;9.93;;;;;;;12.58;97.59;101997.72;5034545;28;20051;-69
2023/05/28 05:42:49;;;;;;;21.45;10.45;;;;;;;12.53;97.38;101976.00;5033734;28;20520;-69
2023/05/28 05:45:14;;;;;;;20.00;9.93;;;;;;;12.76;97.34;101996.59;5033742;28;20104;-69
2023/05/28 05:47:40;;;;;;;25.30;11.05;;;;;;;12.83;96.69;102003.47;5033280;28;20041;-69
2023/05/28 05:50:05;;;;;;;23.17;10.43;;;;;;;12.87;95.94;102007.78;5033336;28;20029;-69
2023/05/28 05:52:31;;;;;;;20.45;10.18;;;;;;;12.97;95.73;102005.88;5033186;28;20017;-69
2023/05/28 05:54:56;;;;;;;20.63;10.27;;;;;;;12.99;95.62;101997.13;5033467;28;20380;-69
2023/05/28 05:57:22;;;;;;;21.38;10.57;;;;;;;13.12;96.55;102008.28;5034059;28;20030;-69
2023/05/28 05:59:47;;;;;;;19.75;10.30;;;;;;;13.16;95.37;102004.72;5032912;28;20468;-69
2023/05/28 06:02:12;;;;;;;17.50;10.63;;;;;;;13.20;94.35;101992.44;5033943;28;20030;-69
2023/05/28 06:04:38;;;;;;;20.23;11.48;;;;;;;13.32;94.58;102015.84;5033519;28;20025;-69
2023/05/28 06:07:04;;;;;;;19.42;9.98;;;;;;;13.40;93.17;102005.25;5032971;28;20018;-69
2023/05/28 06:09:31;;;;;;;20.90;9.90;;;;;;;13.50;92.74;102012.06;5033891;28;20029;-69
2023/05/28 06:11:56;;;;;;;19.35;11.10;;;;;;;13.58;93.59;102002.31;5033464;28;20382;-69
2023/05/28 06:14:23;;;;;;;18.48;10.48;;;;;;;13.59;91.97;101989.19;5032976;28;20017;-69
2023/05/28 06:16:48;;;;;;;19.52;10.55;;;;;;;13.78;91.91;101994.09;5033218;28;20017;-69
2023/05/28 06:19:14;;;;;;;20.27;10.43;;;;;;;13.91;90.74;102008.69;5033127;28;20041;-69
2023/05/28 06:21:39;;;;;;;21.55;10.40;;;;;;;14.00;89.20;102005.06;5032259;28;20025;-70
2023/05/28 06:24:06;;;;;;;20.70;10.23;;;;;;;14.10;89.43;102006.59;5033259;28;20049;-69
2023/05/28 06:26:31;;;;;;;18.20;9.40;;;;;;;14.22;88.07;102000.22;5033428;28;20099;-69
2023/05/28 06:28:57;;;;;;;19.52;9.23;;;;;;;14.27;87.82;101993.16;5032029;28;20435;-69
2023/05/28 06:31:22;;;;;;;17.75;9.43;;;;;;;14.38;86.67;101987.66;5033329;28;20033;-69
2023/05/28 06:33:48;;;;;;;17.20;9.57;;;;;;;14.48;85.90;102000.53;5032767;28;20509;-69
2023/05/28 06:36:13;;;;;;;18.17;10.13;;;;;;;14.60;85.01;101996.84;5032663;28;20101;-69
2023/05/28 06:38:38;;;;;;;19.98;10.15;;;;;;;14.67;83.93;102000.19;5032957;28;20037;-69
2023/05/28 06:41:04;;;;;;;17.13;9.20;;;;;;;14.75;84.45;101996.50;5032497;28;20048;-69
2023/05/28 06:43:29;;;;;;;17.30;8.90;;;;;;;14.87;83.24;101989.25;5033216;28;20039;-69
2023/05/28 06:45:54;;;;;;;17.33;8.85;;;;;;;14.96;83.63;101995.16;5032794;28;20032;-69
2023/05/28 06:48:20;;;;;;;21.17;10.43;;;;;;;14.95;84.15;101971.56;5032023;28;20036;-69
2023/05/28 06:50:45;;;;;;;22.17;9.73;;;;;;;15.11;83.85;101969.44;5032698;28;20025;-69
2023/05/28 06:53:10;;;;;;;14.85;9.00;;;;;;;15.23;81.64;101971.72;5032987;28;20043;-69
2023/05/28 06:55:36;;;;;;;19.80;9.80;;;;;;;15.44;80.27;101991.38;5032331;28;20096;-69
2023/05/28 06:58:01;;;;;;;17.17;9.73;;;;;;;15.53;77.82;101996.41;5032603;28;20429;-69
2023/05/28 07:00:26;;;;;;;18.58;10.15;;;;;;;15.59;77.74;101988.31;5032878;28;20022;-69
2023/05/28 07:02:52;;;;;;;18.65;9.15;;;;;;;15.74;77.79;101994.13;5030799;28;20033;-69
2023/05/28 07:05:17;;;;;;;16.40;9.07;;;;;;;15.81;76.97;101995.69;5032650;28;20545;-69
2023/05/28 07:07:43;;;;;;;16.35;8.52;;;;;;;15.96;77.14;102003.16;5032217;28;20440;-69
2023/05/28 07:10:09;;;;;;;16.00;9.27;;;;;;;16.13;77.00;102003.56;5031916;28;20036;-69
2023/05/28 07:12:35;;;;;;;15.95;9.25;;;;;;;16.26;74.59;102003.22;5032444;28;20477;-69
2023/05/28 07:15:00;;;;;;;16.13;8.65;;;;;;;16.35;73.74;102000.31;5032271;28;20072;-69
2023/05/28 07:17:26;;;;;;;17.30;9.02;;;;;;;16.47;73.25;101999.94;5023594;28;20083;-69
2023/05/28 07:19:51;;;;;;;17.98;8.75;;;;;;;16.61;73.08;102000.41;5031957;28;20405;-69
2023/05/28 07:22:16;;;;;;;20.13;8.75;;;;;;;16.78;72.38;101994.66;5032256;28;20043;-69
2023/05/28 07:24:41;;;;;;;14.05;7.85;;;;;;;16.93;72.42;101995.94;5031268;28;20033;-69
2023/05/28 07:27:07;;;;;;;17.98;8.45;;;;;;;17.06;71.76;101991.97;5032498;28;20113;-69
2023/05/28 07:29:32;;;;;;;16.17;8.13;;;;;;;17.30;70.58;102003.53;5032502;28;20034;-69
2023/05/28 07:31:58;;;;;;;17.17;8.35;;;;;;;17.41;66.42;102010.19;5031518;28;20025;-69
2023/05/28 07:34:23;;;;;;;21.90;8.40;;;;;;;17.52;65.49;102010.69;5032175;28;20162;-69
2023/05/28 07:36:48;;;;;;;14.35;7.57;;;;;;;17.68;66.56;102005.75;5032125;28;20022;-70
2023/05/28 07:39:14;;;;;;;15.70;7.50;;;;;;;17.87;67.80;102003.38;5031496;28;20022;-70
2023/05/28 07:41:39;;;;;;;15.07;7.43;;;;;;;18.09;66.55;101995.56;5031824;28;20036;-70
2023/05/28 07:44:06;;;;;;;15.10;8.10;;;;;;;18.27;62.97;102004.56;5032360;28;20029;-69
2023/05/28 07:46:31;;;;;;;14.27;7.82;;;;;;;18.42;62.94;102007.50;5031385;28;20013;-69
2023/05/28 07:48:56;;;;;;;15.52;7.55;;;;;;;18.48;61.51;102007.25;5023340;28;20049;-69
2023/05/28 07:51:22;;;;;;;13.27;6.97;;;;;;;18.61;60.85;101994.44;5031432;28;20025;-70
2023/05/28 07:53:47;;;;;;;16.15;7.45;;;;;;;18.65;59.09;101993.41;5031628;28;20065;-69
2023/05/28 07:56:12;;;;;;;16.60;7.10;;;;;;;18.76;58.08;102003.56;5032169;28;20029;-70
2023/05/28 07:58:38;;;;;;;14.20;6.97;;;;;;;18.82;58.47;102000.69;5031277;28;20116;-70
2023/05/28 08:01:08;;;;;;;21.17;7.97;;;;;;;18.92;58.30;102009.97;5032223;28;20030;-69
2023/05/28 08:03:34;;;;;;;14.55;6.85;;;;;;;18.99;56.98;102009.72;5031794;28;20040;-69
2023/05/28 08:06:00;;;;;;;15.93;6.90;;;;;;;19.04;59.19;102000.69;5030818;28;20029;-70
2023/05/28 08:08:25;;;;;;;17.63;7.30;;;;;;;19.22;57.64;102009.66;5032011;28;20044;-69
2023/05/28 08:10:51;;;;;;;14.93;7.05;;;;;;;19.20;55.45;102005.38;5031978;28;20032;-69
2023/05/28 08:13:16;;;;;;;13.80;6.93;;;;;;;19.16;57.27;101996.69;5032825;28;20167;-70
2023/05/28 08:15:41;;;;;;;15.18;6.95;;;;;;;19.21;57.01;102005.28;5035840;28;20465;-69
2023/05/28 08:18:06;;;;;;;12.65;6.88;;;;;;;19.21;56.41;101994.72;5035811;28;20055;-69
2023/05/28 08:20:32;;;;;;;12.15;6.85;;;;;;;19.09;55.92;101996.06;5034727;28;20037;-69
2023/05/28 08:22:57;;;;;;;17.10;8.90;;;;;;;19.11;58.77;102003.97;5035611;28;20045;-70
2023/05/28 08:25:22;;;;;;;16.02;8.23;;;;;;;19.12;59.15;101995.09;5035534;28;20036;-70
2023/05/28 08:27:48;;;;;;;20.00;8.73;;;;;;;19.06;58.98;102001.47;5034760;28;20481;-70
2023/05/28 08:30:13;;;;;;;21.88;8.63;;;;;;;18.94;60.12;101996.72;5035052;28;20038;-77
2023/05/28 08:32:38;;;;;;;15.63;9.27;;;;;;;18.98;60.32;101997.44;5035304;28;20119;-70
2023/05/28 08:35:04;;;;;;;19.33;9.27;;;;;;;18.90;61.15;102001.25;5034870;28;20076;-70
2023/05/28 08:37:29;;;;;;;17.20;9.50;;;;;;;18.94;62.92;102002.84;5035462;28;20458;-70
2023/05/28 08:39:55;;;;;;;18.83;8.73;;;;;;;18.97;61.29;101999.22;5035138;28;20025;-70
2023/05/28 08:42:20;;;;;;;17.98;9.10;;;;;;;19.02;62.31;101999.88;5034565;28;20037;-70
2023/05/28 08:44:46;;;;;;;14.77;8.80;;;;;;;19.18;64.00;101993.06;5034887;28;20032;-70
2023/05/28 08:47:13;;;;;;;18.10;9.48;;;;;;;19.26;64.29;101987.47;5035257;28;20465;-71
2023/05/28 08:49:45;;;;;;;23.85;9.80;;;;;;;19.35;60.41;101986.22;5033971;28;20060;-70
2023/05/28 08:52:12;;;;;;;18.30;9.05;;;;;;;19.55;61.18;101993.28;5035176;28;20443;-70
2023/05/28 08:54:39;;;;;;;16.95;8.48;;;;;;;19.72;59.76;101993.47;5034245;28;20033;-70
2023/05/28 08:57:05;;;;;;;20.38;9.05;;;;;;;19.83;58.82;101983.28;5035170;28;20465;-70
2023/05/28 08:59:31;;;;;;;15.85;9.05;;;;;;;19.87;58.65;101984.84;5035120;28;20338;-70
2023/05/28 09:01:56;;;;;;;17.38;8.07;;;;;;;19.83;56.88;101964.75;5033610;28;20488;-70
2023/05/28 09:04:21;;;;;;;16.70;7.82;;;;;;;20.04;57.38;101965.56;5035120;28;20044;-70
2023/05/28 09:06:49;;;;;;;16.67;8.35;;;;;;;20.20;56.37;101970.16;5034701;28;20097;-70
2023/05/28 09:09:15;;;;;;;14.30;7.25;;;;;;;20.26;55.64;101951.34;5033925;28;20477;-70
2023/05/28 09:11:40;;;;;;;18.50;6.22;;;;;;;20.51;54.22;101962.53;5034508;28;20091;-70
2023/05/28 09:14:10;;;;;;;12.60;5.82;;;;;;;20.54;51.12;101958.91;5034689;28;20079;-70
2023/05/28 09:16:39;;;;;;;11.25;5.05;;;;;;;20.83;49.93;101969.88;5034072;28;20033;-70
2023/05/28 09:19:05;;;;;;;10.80;4.57;;;;;;;21.00;49.06;101960.16;5034697;28;20029;-70
2023/05/28 09:21:31;;;;;;;12.50;5.50;;;;;;;21.04;47.99;101972.31;5027245;28;20389;-69
2023/05/28 09:23:58;;;;;;;10.93;5.43;;;;;;;21.10;46.81;101963.22;5033319;28;20017;-70
2023/05/28 09:26:28;;;;;;;13.55;4.80;;;;;;;21.31;48.71;101969.22;5033979;28;20026;-70
2023/05/28 09:28:53;;;;;;;12.63;5.10;;;;;;;21.38;48.59;101951.22;5034042;28;20029;-70
2023/05/28 09:31:18;;;;;;;10.90;5.25;;;;;;;21.57;46.98;101973.22;5033541;28;20374;-70
2023/05/28 09:33:45;;;;;;;11.23;5.35;;;;;;;21.54;45.85;101961.91;5033773;28;20087;-70
2023/05/28 09:36:11;;;;;;;12.30;5.90;;;;;;;21.62;46.08;101959.75;5034576;28;20052;-70
2023/05/28 09:38:41;;;;;;;14.07;5.93;;;;;;;21.65;47.24;101962.25;5033722;28;20534;-70
2023/05/28 09:41:34;;;;;;;13.30;5.88;;;;;;;21.73;46.44;101968.84;5034238;28;20030;-70
2023/05/28 09:44:00;;;;;;;9.68;5.43;;;;;;;21.91;45.97;101968.81;5032983;28;20044;-70
2023/05/28 09:46:35;;;;;;;12.50;5.75;;;;;;;21.98;46.43;101955.13;5034274;28;20037;-70
2023/05/28 09:49:03;;;;;;;14.13;5.57;;;;;;;22.03;44.74;101960.19;5026017;28;20120;-70
2023/05/28 09:51:32;;;;;;;10.93;5.32;;;;;;;21.95;44.92;101957.09;5033425;28;20025;-70
2023/05/28 09:54:00;;;;;;;7.63;4.32;;;;;;;22.09;42.81;101956.34;5033624;28;20484;-70
2023/05/28 09:56:32;;;;;;;9.02;4.55;;;;;;;22.00;44.37;101952.38;5033631;28;20128;-70
2023/05/28 09:58:59;;;;;;;10.82;4.65;;;;;;;21.95;43.54;101960.59;5033014;28;20525;-70
2023/05/28 10:01:40;;;;;;;9.48;4.53;;;;;;;21.88;42.10;101963.69;5033534;28;20491;-70
2023/05/28 10:04:10;;;;;;;8.50;4.90;;;;;;;21.98;42.17;101954.28;5033775;28;20029;-70
2023/05/28 10:06:38;;;;;;;12.15;4.65;;;;;;;22.13;41.48;101956.06;5032762;28;20465;-70
2023/05/28 10:09:04;;;;;;;8.40;4.47;;;;;;;22.16;41.65;101952.44;5033864;28;20040;-70
2023/05/28 10:11:36;;;;;;;8.48;4.80;;;;;;;22.02;42.52;101950.50;5033673;28;20029;-70
2023/05/28 10:14:03;;;;;;;10.07;5.20;;;;;;;22.08;42.36;101951.97;5032680;28;20036;-70
2023/05/28 10:16:29;;;;;;;8.73;4.70;;;;;;;22.31;43.31;101953.41;5033806;28;20021;-70
2023/05/28 10:18:56;;;;;;;13.82;5.05;;;;;;;22.62;43.84;101960.50;5032797;28;20032;-70
2023/05/28 10:21:21;;;;;;;14.13;5.10;;;;;;;22.98;42.32;101965.56;5032988;28;20033;-69
2023/05/28 10:23:48;;;;;;;12.50;5.35;;;;;;;23.15;42.21;101959.25;5033181;28;20079;-70
2023/05/28 10:26:15;;;;;;;9.90;4.93;;;;;;;23.28;40.92;101959.38;5032684;28;20037;-70
2023/05/28 10:28:40;;;;;;;10.68;4.75;;;;;;;23.40;40.17;101944.50;5032971;28;20101;-70
2023/05/28 10:31:07;;;;;;;10.18;4.80;;;;;;;23.66;41.29;101962.41;5033539;28;20112;-70
2023/05/28 10:33:42;;;;;;;8.43;4.60;;;;;;;23.72;39.24;101955.88;5032610;28;20051;-70
2023/05/28 10:36:14;;;;;;;13.18;5.10;;;;;;;23.74;39.75;101949.53;5028197;28;20028;-70
2023/05/28 10:38:51;;;;;;;9.73;5.07;;;;;;;23.74;39.33;101962.84;5032696;28;20393;-70
2023/05/28 10:41:18;;;;;;;12.32;4.80;;;;;;;23.89;38.21;101955.69;5027987;28;20026;-69
2023/05/28 10:43:47;;;;;;;11.95;4.53;;;;;;;23.96;38.78;101954.34;5032787;28;20042;-70
2023/05/28 10:46:22;;;;;;;10.38;4.88;;;;;;;24.24;39.10;101958.81;5032629;28;20049;-70
2023/05/28 10:49:09;;;;;;;8.95;4.40;;;;;;;24.58;39.30;101962.00;5031639;28;20106;-70
2023/05/28 10:52:01;;;;;;;9.93;5.18;;;;;;;24.76;38.34;101962.63;5032676;28;20481;-70
2023/05/28 10:54:29;;;;;;;10.23;4.93;;;;;;;24.96;38.35;101963.97;5027049;28;20029;-70
2023/05/28 10:57:17;;;;;;;10.32;4.63;;;;;;;25.17;38.72;101959.03;5031181;28;20429;-70
2023/05/28 10:59:43;;;;;;;9.63;4.80;;;;;;;24.97;36.33;101953.19;5032448;28;20056;-70
2023/05/28 11:02:10;;;;;;;10.30;4.50;;;;;;;24.89;35.84;101965.34;5031882;28;20033;-70
2023/05/28 11:04:35;;;;;;;9.13;4.57;;;;;;;24.83;36.65;101949.75;5032634;28;20053;-70
2023/05/28 11:07:02;;;;;;;7.68;5.03;;;;;;;24.82;35.35;101961.34;5032374;28;20079;-69
2023/05/28 11:09:27;;;;;;;9.98;4.15;;;;;;;24.68;36.32;101955.13;5031795;28;20083;-70